Terminal Aerodrome Forecast
Issued by NWS

Home | Current Version | Previous Version | Text Only | Print | Product List | Glossary On
Versions: 1 2 3 4 5 6 7 8 9 10 11 12 13 14 15 16 17
666
FTUS43 KLSX 201700
TAFUIN
TAF
KUIN 201722Z 2018/2118 05012KT 5SM -RA BR SCT025 OVC040
     FM202100 02006KT P6SM BKN015 OVC025
     FM210200 02004KT P6SM BKN007 OVC015
     FM211400 32007KT P6SM BKN025=

USA.gov is the U.S. government's official web portal to all federal, state and local government web resources and services.